createdAt,value
2018-01-24T00:02:10.049Z,71.30
2018-01-24T00:04:37.652Z,73.80
2018-01-24T00:07:05.318Z,74.20
2018-01-24T00:09:32.922Z,74.50
2018-01-24T00:12:00.539Z,73.70
2018-01-24T00:14:28.188Z,71.90
2018-01-24T00:16:55.863Z,71.10
2018-01-24T00:19:23.456Z,71.00
2018-01-24T00:21:51.140Z,70.70
2018-01-24T00:24:18.790Z,71.00
2018-01-24T00:26:46.484Z,70.80
2018-01-24T00:29:14.104Z,70.50
2018-01-24T00:31:41.697Z,70.50
2018-01-24T00:34:09.310Z,70.70
2018-01-24T00:36:36.907Z,70.20
2018-01-24T00:39:04.554Z,69.60
2018-01-24T00:41:32.975Z,68.80
2018-01-24T00:44:00.587Z,68.70
2018-01-24T00:46:28.174Z,67.40
2018-01-24T00:48:55.844Z,67.30
2018-01-24T00:51:23.469Z,67.70
2018-01-24T00:53:51.090Z,67.70
2018-01-24T00:56:18.707Z,67.20
2018-01-24T00:58:46.342Z,67.70
2018-01-24T01:01:14.000Z,68.40
2018-01-24T01:03:41.598Z,68.00
2018-01-24T01:06:09.256Z,67.80
2018-01-24T01:08:36.901Z,67.40
2018-01-24T01:11:04.534Z,68.00
2018-01-24T01:13:32.154Z,67.50
2018-01-24T01:15:59.743Z,68.00
2018-01-24T01:18:27.363Z,68.00
2018-01-24T01:20:54.963Z,68.40
2018-01-24T01:23:23.379Z,68.80
2018-01-24T01:25:51.013Z,68.70
2018-01-24T01:28:19.435Z,69.30
2018-01-24T01:30:47.057Z,69.30
2018-01-24T01:33:14.698Z,69.80
2018-01-24T01:35:42.300Z,70.30
2018-01-24T01:38:10.724Z,72.20
2018-01-24T01:40:38.319Z,72.10
2018-01-24T01:43:06.700Z,71.50
2018-01-24T01:45:35.049Z,71.70
2018-01-24T01:48:02.680Z,71.60
2018-01-24T01:50:30.326Z,71.80
2018-01-24T01:52:57.943Z,71.60
2018-01-24T01:55:25.544Z,71.60
2018-01-24T01:57:53.333Z,71.90
2018-01-24T02:00:20.959Z,71.90
2018-01-24T02:02:48.616Z,71.40
2018-01-24T02:05:16.221Z,71.50
2018-01-24T02:07:43.813Z,71.50
2018-01-24T02:10:11.423Z,72.20
2018-01-24T02:12:39.040Z,72.80
2018-01-24T02:15:07.549Z,73.20
2018-01-24T02:17:37.352Z,73.10
2018-01-24T02:20:04.924Z,72.90
2018-01-24T02:22:32.533Z,73.10
2018-01-24T02:25:00.115Z,72.40
2018-01-24T02:27:28.519Z,73.50
2018-01-24T02:29:56.131Z,73.50
2018-01-24T02:32:23.763Z,73.30
2018-01-24T02:34:51.382Z,72.40
2018-01-24T02:37:19.033Z,72.50
2018-01-24T02:39:47.404Z,71.80
2018-01-24T02:42:15.007Z,71.80
2018-01-24T02:44:42.609Z,71.20
2018-01-24T02:47:10.197Z,71.90
2018-01-24T02:49:37.823Z,71.80
2018-01-24T02:52:05.472Z,72.80
2018-01-24T02:54:33.033Z,72.50
2018-01-24T02:57:00.627Z,73.60
2018-01-24T02:59:28.226Z,74.40
2018-01-24T03:01:55.829Z,75.40
2018-01-24T03:04:23.500Z,76.20
2018-01-24T03:06:51.112Z,76.90
2018-01-24T03:09:18.710Z,77.00
2018-01-24T03:11:46.319Z,76.10
2018-01-24T03:14:13.941Z,75.80
2018-01-24T03:16:41.547Z,75.90
2018-01-24T03:19:09.127Z,76.10
2018-01-24T03:21:36.710Z,76.10
2018-01-24T03:24:04.407Z,76.30
2018-01-24T03:26:32.107Z,76.00
2018-01-24T03:28:59.671Z,75.80
2018-01-24T03:31:27.348Z,75.70
2018-01-24T03:33:54.974Z,75.50
2018-01-24T03:36:22.671Z,75.60
2018-01-24T03:38:50.318Z,75.90
2018-01-24T03:41:17.893Z,76.20
2018-01-24T03:43:45.513Z,75.90
2018-01-24T03:46:13.091Z,76.50
2018-01-24T03:48:40.696Z,75.90
2018-01-24T03:51:08.283Z,76.30
2018-01-24T03:53:35.950Z,76.40
2018-01-24T03:56:03.554Z,76.30
2018-01-24T03:58:31.195Z,76.50
2018-01-24T04:00:58.779Z,76.60
2018-01-24T04:03:26.410Z,76.70
2018-01-24T04:05:54.022Z,77.00
2018-01-24T04:08:21.616Z,77.30
2018-01-24T04:10:49.292Z,77.90
2018-01-24T04:13:16.911Z,78.70
2018-01-24T04:15:45.312Z,80.30
2018-01-24T04:18:12.906Z,80.20
2018-01-24T04:20:40.488Z,81.30
2018-01-24T04:23:08.092Z,82.30
2018-01-24T04:25:35.757Z,83.70
2018-01-24T04:28:03.350Z,84.80
2018-01-24T04:30:30.958Z,85.70
2018-01-24T04:32:59.341Z,88.00
2018-01-24T04:35:27.718Z,88.40
2018-01-24T04:37:56.140Z,90.10
2018-01-24T04:40:23.710Z,90.10
2018-01-24T04:42:51.323Z,89.10
2018-01-24T04:45:18.994Z,89.10
2018-01-24T04:47:46.570Z,90.00
2018-01-24T04:50:14.267Z,90.30
2018-01-24T04:52:41.925Z,90.50
2018-01-24T04:55:09.587Z,90.10
2018-01-24T04:57:37.192Z,90.10
2018-01-24T05:00:04.815Z,89.80
2018-01-24T05:02:32.452Z,88.70
2018-01-24T05:05:00.077Z,88.60
2018-01-24T05:07:27.762Z,89.00
2018-01-24T05:09:55.378Z,89.60
2018-01-24T05:12:23.786Z,90.50
2018-01-24T05:14:54.421Z,90.50
2018-01-24T05:17:22.016Z,90.30
2018-01-24T05:19:49.633Z,90.30
2018-01-24T05:22:17.274Z,90.50
2018-01-24T05:24:44.890Z,90.00
2018-01-24T05:27:12.446Z,90.50
2018-01-24T05:29:40.029Z,90.80
2018-01-24T05:32:07.624Z,91.00
2018-01-24T05:34:35.979Z,91.10
2018-01-24T05:37:03.612Z,91.10
2018-01-24T05:39:31.223Z,90.50
2018-01-24T05:41:59.593Z,90.10
2018-01-24T05:44:27.946Z,90.40
2018-01-24T05:46:55.565Z,90.30
2018-01-24T05:49:23.158Z,90.10
2018-01-24T05:51:50.776Z,90.80
2018-01-24T05:54:18.402Z,91.90
2018-01-24T05:56:45.984Z,91.50
2018-01-24T05:59:14.371Z,90.60
2018-01-24T06:01:41.980Z,90.60
2018-01-24T06:04:09.547Z,90.80
2018-01-24T06:06:37.161Z,90.90
2018-01-24T06:09:04.772Z,90.80
2018-01-24T06:11:32.363Z,90.80
2018-01-24T06:13:59.936Z,90.90
2018-01-24T06:16:27.532Z,91.60
2018-01-24T06:18:55.131Z,91.20
2018-01-24T06:21:23.500Z,90.70
2018-01-24T06:23:51.894Z,90.50
2018-01-24T06:26:20.243Z,92.40
2018-01-24T06:28:47.841Z,92.30
2018-01-24T06:31:16.231Z,91.30
2018-01-24T06:33:43.859Z,91.20
2018-01-24T06:36:11.464Z,92.10
2018-01-24T06:38:39.081Z,92.30
2018-01-24T06:41:07.460Z,92.60
2018-01-24T06:43:35.841Z,92.90
2018-01-24T06:46:04.190Z,92.70
2018-01-24T06:48:31.826Z,92.70
2018-01-24T06:50:59.455Z,92.40
2018-01-24T06:53:27.912Z,92.10
2018-01-24T06:55:55.548Z,92.10
2018-01-24T06:58:23.150Z,92.50
2018-01-24T07:00:50.802Z,92.10
2018-01-24T07:03:19.207Z,91.70
2018-01-24T07:05:46.801Z,91.70
2018-01-24T07:08:14.372Z,91.80
2018-01-24T07:10:42.019Z,91.80
2018-01-24T07:13:21.402Z,91.90
2018-01-24T07:15:48.969Z,91.80
2018-01-24T07:18:16.535Z,93.00
2018-01-24T07:20:44.883Z,92.50
2018-01-24T07:23:12.468Z,92.50
2018-01-24T07:25:40.837Z,92.70
2018-01-24T07:28:08.426Z,92.70
2018-01-24T07:30:36.055Z,92.90
2018-01-24T07:33:04.395Z,93.20
2018-01-24T07:35:32.025Z,93.10
2018-01-24T07:37:59.645Z,93.10
2018-01-24T07:40:27.238Z,93.60
2018-01-24T07:42:54.842Z,94.10
2018-01-24T07:45:22.441Z,93.80
2018-01-24T07:47:50.813Z,94.00
2018-01-24T07:50:19.164Z,94.60
2018-01-24T07:52:46.767Z,94.30
2018-01-24T07:55:15.155Z,96.00
2018-01-24T07:57:42.746Z,96.00
2018-01-24T08:00:10.372Z,96.20
2018-01-24T08:02:37.965Z,96.20
2018-01-24T08:05:05.569Z,96.20
2018-01-24T08:07:33.996Z,96.30
2018-01-24T08:10:01.596Z,96.30
2018-01-24T08:12:29.183Z,96.30
2018-01-24T08:14:57.585Z,96.70
2018-01-24T08:17:25.217Z,96.60
2018-01-24T08:19:53.578Z,96.60
2018-01-24T08:22:21.195Z,96.60
2018-01-24T08:24:48.811Z,96.50
2018-01-24T08:27:16.462Z,96.10
2018-01-24T08:29:44.057Z,96.20
2018-01-24T08:32:11.681Z,96.10
2018-01-24T08:34:39.274Z,96.30
2018-01-24T08:37:06.891Z,95.20
2018-01-24T08:39:34.451Z,94.10
2018-01-24T08:42:02.068Z,92.90
2018-01-24T08:44:29.632Z,89.10
2018-01-24T08:46:57.268Z,88.30
2018-01-24T08:49:25.655Z,82.80
2018-01-24T08:51:53.226Z,82.60
2018-01-24T08:54:20.816Z,76.20
2018-01-24T08:56:48.436Z,72.70
2018-01-24T08:59:16.001Z,61.10
2018-01-24T09:01:43.630Z,67.20
2018-01-24T09:04:12.077Z,60.80
2018-01-24T09:06:39.683Z,60.70
2018-01-24T09:09:08.078Z,52.10
2018-01-24T09:11:35.729Z,52.00
2018-01-24T09:14:04.101Z,45.90
2018-01-24T09:16:32.478Z,47.50
2018-01-24T09:19:00.832Z,45.50
2018-01-24T09:21:28.465Z,45.40
2018-01-24T09:23:56.087Z,44.90
2018-01-24T09:26:24.461Z,44.30
2018-01-24T09:28:52.053Z,44.20
2018-01-24T09:31:19.628Z,42.70
2018-01-24T09:33:47.183Z,41.20
2018-01-24T09:36:14.807Z,41.90
2018-01-24T09:38:43.180Z,43.10
2018-01-24T09:41:11.624Z,42.40
2018-01-24T09:43:39.203Z,42.30
2018-01-24T09:46:06.790Z,41.10
2018-01-24T09:48:34.331Z,39.60
2018-01-24T09:51:01.947Z,41.00
2018-01-24T09:53:30.338Z,44.00
2018-01-24T09:55:57.904Z,44.00
2018-01-24T09:58:25.522Z,45.70
2018-01-24T10:00:53.122Z,46.70
2018-01-24T10:03:20.757Z,45.70
2018-01-24T10:05:48.341Z,45.30
2018-01-24T10:08:23.813Z,44.00
2018-01-24T10:10:51.447Z,44.30
2018-01-24T10:13:19.086Z,43.60
2018-01-24T10:15:46.694Z,41.40
2018-01-24T10:18:14.281Z,40.20
2018-01-24T10:20:41.882Z,40.20
2018-01-24T10:23:09.490Z,41.60
2018-01-24T10:25:37.113Z,39.30
2018-01-24T10:28:04.737Z,38.40
2018-01-24T10:30:32.320Z,37.60
2018-01-24T10:32:59.951Z,37.80
2018-01-24T10:35:27.527Z,39.10
2018-01-24T10:37:55.094Z,39.90
2018-01-24T10:40:22.706Z,41.60
2018-01-24T10:42:51.130Z,42.20
2018-01-24T10:45:18.756Z,42.20
2018-01-24T10:47:46.360Z,43.70
2018-01-24T10:50:13.927Z,44.90
2018-01-24T10:52:41.575Z,45.70
2018-01-24T10:55:09.168Z,44.80
2018-01-24T10:57:36.746Z,43.30
2018-01-24T11:00:05.113Z,45.00
2018-01-24T11:02:33.462Z,47.40
2018-01-24T11:05:01.135Z,47.30
2018-01-24T11:07:28.744Z,46.40
2018-01-24T11:09:56.346Z,45.70
2018-01-24T11:12:23.954Z,47.10
2018-01-24T11:14:51.532Z,50.40
2018-01-24T11:17:19.112Z,52.80
2018-01-24T11:19:46.692Z,54.20
2018-01-24T11:22:14.327Z,55.80
2018-01-24T11:24:41.925Z,56.30
2018-01-24T11:27:09.510Z,58.80
2018-01-24T11:29:37.112Z,58.70
2018-01-24T11:32:04.686Z,59.10
2018-01-24T11:34:32.240Z,58.60
2018-01-24T11:37:00.431Z,58.00
2018-01-24T11:39:28.043Z,58.40
2018-01-24T11:41:55.624Z,58.80
2018-01-24T11:44:23.227Z,58.00
2018-01-24T11:46:51.627Z,57.60
2018-01-24T11:49:19.269Z,57.50
2018-01-24T11:51:47.700Z,57.40
2018-01-24T11:54:15.315Z,57.30
2018-01-24T11:56:43.672Z,56.40
2018-01-24T11:59:11.264Z,56.40
2018-01-24T12:01:39.698Z,56.10
2018-01-24T12:04:07.307Z,56.00
2018-01-24T12:06:34.884Z,55.60
2018-01-24T12:09:02.511Z,56.00
2018-01-24T12:11:30.891Z,56.30
2018-01-24T12:13:58.464Z,56.30
2018-01-24T12:16:26.081Z,56.10
2018-01-24T12:18:53.672Z,55.80
2018-01-24T12:21:21.368Z,55.80
2018-01-24T12:23:48.952Z,55.90
2018-01-24T12:26:16.559Z,56.30
2018-01-24T12:28:44.234Z,56.30
2018-01-24T12:31:11.905Z,57.20
2018-01-24T12:33:39.507Z,57.90
2018-01-24T12:36:07.093Z,56.10
2018-01-24T12:38:35.508Z,57.90
2018-01-24T12:41:03.084Z,57.80
2018-01-24T12:43:30.706Z,57.20
2018-01-24T12:45:58.322Z,57.00
2018-01-24T12:48:25.932Z,56.70
2018-01-24T12:50:53.569Z,56.10
2018-01-24T12:53:21.224Z,56.00
2018-01-24T12:55:48.864Z,56.90
2018-01-24T12:58:16.497Z,57.60
2018-01-24T13:00:44.132Z,57.40
2018-01-24T13:03:11.762Z,57.00
2018-01-24T13:05:39.362Z,57.80
2018-01-24T13:08:06.964Z,58.40
2018-01-24T13:10:34.647Z,58.20
2018-01-24T13:13:03.000Z,57.90
2018-01-24T13:15:30.604Z,57.90
2018-01-24T13:17:58.992Z,57.10
2018-01-24T13:20:26.612Z,57.10
2018-01-24T13:22:54.281Z,57.90
2018-01-24T13:25:21.900Z,57.70
2018-01-24T13:27:49.531Z,58.30
2018-01-24T13:30:17.928Z,58.30
2018-01-24T13:32:45.523Z,58.20
2018-01-24T13:35:13.112Z,58.10
2018-01-24T13:37:40.725Z,58.70
2018-01-24T13:40:08.356Z,58.30
2018-01-24T13:42:36.754Z,58.50
2018-01-24T13:45:04.376Z,58.50
2018-01-24T13:47:32.759Z,58.50
2018-01-24T13:50:01.168Z,58.10
2018-01-24T13:52:28.778Z,58.10
2018-01-24T13:54:56.394Z,58.10
2018-01-24T13:57:24.004Z,58.40
2018-01-24T13:59:51.591Z,57.30
2018-01-24T14:02:19.229Z,57.10
2018-01-24T14:04:46.841Z,57.10
2018-01-24T14:07:14.483Z,57.00
2018-01-24T14:09:42.101Z,56.90
2018-01-24T14:12:09.760Z,56.90
2018-01-24T14:14:37.395Z,56.90
2018-01-24T14:17:05.039Z,56.90
2018-01-24T14:19:32.611Z,56.70
2018-01-24T14:22:00.191Z,57.90
2018-01-24T14:24:27.808Z,57.90
2018-01-24T14:26:55.383Z,58.40
2018-01-24T14:29:23.006Z,57.00
2018-01-24T14:31:51.387Z,57.10
2018-01-24T14:34:19.043Z,57.10
2018-01-24T14:36:57.803Z,57.70
2018-01-24T14:39:25.440Z,57.60
2018-01-24T14:41:53.746Z,57.90
2018-01-24T14:44:21.359Z,57.80
2018-01-24T14:46:48.925Z,57.30
2018-01-24T14:49:18.354Z,57.80
2018-01-24T14:51:49.246Z,57.90
2018-01-24T14:54:16.841Z,57.80
2018-01-24T14:56:44.450Z,57.90
2018-01-24T14:59:12.016Z,57.80
2018-01-24T15:01:39.663Z,58.20
2018-01-24T15:04:07.331Z,59.50
2018-01-24T15:06:34.954Z,60.30
2018-01-24T15:09:02.574Z,62.20
2018-01-24T15:11:30.205Z,62.50
2018-01-24T15:13:57.767Z,62.50
2018-01-24T15:16:25.395Z,63.00
2018-01-24T15:18:52.996Z,62.80
2018-01-24T15:21:20.661Z,63.10
2018-01-24T15:23:48.270Z,63.60
2018-01-24T15:26:15.869Z,64.80
2018-01-24T15:28:43.491Z,65.20
2018-01-24T15:31:11.090Z,65.90
2018-01-24T15:33:39.597Z,66.60
2018-01-24T15:36:07.204Z,65.80
2018-01-24T15:38:34.820Z,59.40
2018-01-24T15:41:02.420Z,59.60
2018-01-24T15:43:30.009Z,55.60
2018-01-24T15:45:57.661Z,55.40
2018-01-24T15:48:36.606Z,56.00
2018-01-24T15:51:04.234Z,52.90
2018-01-24T15:53:31.810Z,52.60
2018-01-24T15:55:59.407Z,52.60
2018-01-24T15:58:27.025Z,52.00
2018-01-24T16:00:54.625Z,52.90
2018-01-24T16:03:22.218Z,52.50
2018-01-24T16:05:49.802Z,54.00
2018-01-24T16:08:17.368Z,55.50
2018-01-24T16:10:44.964Z,56.90
2018-01-24T16:13:12.578Z,58.50
2018-01-24T16:15:40.197Z,59.00
2018-01-24T16:18:07.791Z,59.40
2018-01-24T16:20:35.386Z,59.20
2018-01-24T16:23:03.062Z,60.70
2018-01-24T16:25:30.624Z,60.70
2018-01-24T16:27:58.240Z,59.90
2018-01-24T16:30:25.833Z,59.10
2018-01-24T16:32:53.436Z,58.50
2018-01-24T16:35:21.789Z,57.90
2018-01-24T16:37:49.462Z,57.80
2018-01-24T16:40:17.060Z,58.20
2018-01-24T16:42:44.650Z,59.00
2018-01-24T16:45:12.281Z,59.20
2018-01-24T16:47:39.899Z,60.10
2018-01-24T16:50:08.264Z,62.00
2018-01-24T16:52:35.899Z,61.90
2018-01-24T16:55:03.489Z,63.60
2018-01-24T16:57:31.135Z,63.00
2018-01-24T16:59:58.793Z,63.80
2018-01-24T17:02:28.337Z,63.80
2018-01-24T17:05:13.939Z,65.90
2018-01-24T17:07:41.510Z,65.80
2018-01-24T17:10:09.106Z,66.00
2018-01-24T17:12:36.704Z,68.10
2018-01-24T17:15:05.082Z,72.00
2018-01-24T17:17:33.441Z,71.70
2018-01-24T17:20:01.059Z,71.60
2018-01-24T17:22:28.628Z,71.60
2018-01-24T17:24:56.223Z,71.10
2018-01-24T17:27:23.862Z,71.10
2018-01-24T17:30:01.830Z,70.50
2018-01-24T17:32:29.420Z,70.20
2018-01-24T17:34:57.034Z,69.30
2018-01-24T17:37:25.415Z,71.40
2018-01-24T17:39:53.026Z,71.30
2018-01-24T17:42:41.214Z,69.80
2018-01-24T17:45:11.489Z,69.80
2018-01-24T17:47:39.133Z,70.80
2018-01-24T17:50:06.779Z,70.70
2018-01-24T17:52:34.405Z,71.10
2018-01-24T17:55:02.790Z,73.20
2018-01-24T17:57:30.371Z,72.30
2018-01-24T17:59:58.055Z,73.40
2018-01-24T18:02:25.727Z,73.50
2018-01-24T18:04:53.339Z,74.30
2018-01-24T18:07:20.979Z,75.40
2018-01-24T18:09:48.587Z,74.10
2018-01-24T18:12:16.259Z,73.40
2018-01-24T18:14:43.930Z,73.00
2018-01-24T18:17:11.536Z,73.50
2018-01-24T18:19:39.960Z,72.90
2018-01-24T18:22:07.580Z,72.80
2018-01-24T18:24:35.239Z,73.60
2018-01-24T18:27:02.880Z,73.00
2018-01-24T18:29:30.519Z,72.60
2018-01-24T18:31:58.186Z,72.50
2018-01-24T18:34:25.804Z,72.70
2018-01-24T18:36:53.476Z,73.40
2018-01-24T18:39:21.121Z,73.20
2018-01-24T18:41:49.543Z,73.70
2018-01-24T18:44:17.183Z,73.80
2018-01-24T18:46:44.799Z,73.80
2018-01-24T18:49:12.431Z,74.00
2018-01-24T18:51:40.045Z,73.60
2018-01-24T18:54:07.730Z,73.50
2018-01-24T18:56:35.351Z,73.90
2018-01-24T18:59:02.990Z,74.00
2018-01-24T19:01:30.619Z,74.20
2018-01-24T19:03:58.306Z,74.10
2018-01-24T19:06:25.963Z,74.10
2018-01-24T19:08:53.589Z,73.40
2018-01-24T19:11:21.223Z,73.30
2018-01-24T19:13:48.830Z,71.70
2018-01-24T19:16:16.458Z,71.80
2018-01-24T19:18:44.125Z,71.60
2018-01-24T19:21:11.748Z,71.80
2018-01-24T19:23:40.384Z,70.90
2018-01-24T19:26:08.021Z,71.10
2018-01-24T19:28:35.638Z,71.50
2018-01-24T19:31:03.269Z,71.50
2018-01-24T19:33:30.923Z,72.00
2018-01-24T19:35:58.540Z,72.00
2018-01-24T19:38:26.131Z,72.70
2018-01-24T19:40:54.515Z,73.30
2018-01-24T19:43:22.124Z,73.20
2018-01-24T19:45:49.740Z,73.70
2018-01-24T19:48:17.373Z,72.20
2018-01-24T19:50:45.032Z,73.00
2018-01-24T19:53:12.714Z,71.50
2018-01-24T19:55:40.329Z,71.40
2018-01-24T19:58:07.914Z,70.60
2018-01-24T20:00:35.550Z,69.90
2018-01-24T20:03:03.184Z,71.30
2018-01-24T20:05:30.798Z,71.10
2018-01-24T20:07:58.456Z,71.60
2018-01-24T20:10:26.024Z,72.00
2018-01-24T20:12:54.420Z,73.40
2018-01-24T20:15:22.080Z,73.30
2018-01-24T20:17:49.753Z,73.50
2018-01-24T20:20:17.392Z,74.00
2018-01-24T20:22:44.972Z,73.60
2018-01-24T20:25:12.583Z,73.60
2018-01-24T20:27:40.166Z,73.60
2018-01-24T20:30:07.808Z,73.20
2018-01-24T20:32:35.399Z,72.60
2018-01-24T20:35:03.022Z,71.90
2018-01-24T20:37:30.611Z,71.80
2018-01-24T20:39:58.240Z,71.50
2018-01-24T20:42:25.861Z,69.80
2018-01-24T20:44:53.457Z,68.60
2018-01-24T20:47:21.108Z,67.20
2018-01-24T20:49:48.774Z,64.20
2018-01-24T20:52:16.416Z,61.70
2018-01-24T20:54:44.047Z,61.00
2018-01-24T20:57:11.647Z,59.80
2018-01-24T20:59:39.266Z,59.50
2018-01-24T21:02:06.859Z,59.80
2018-01-24T21:04:34.513Z,58.70
2018-01-24T21:07:02.132Z,59.30
2018-01-24T21:09:30.504Z,59.40
2018-01-24T21:11:58.108Z,59.40
2018-01-24T21:14:25.803Z,60.10
2018-01-24T21:16:53.472Z,59.70
2018-01-24T21:19:21.096Z,60.00
2018-01-24T21:21:48.692Z,60.50
2018-01-24T21:24:16.331Z,61.20
2018-01-24T21:26:43.983Z,62.00
2018-01-24T21:29:32.106Z,62.30
2018-01-24T21:32:11.527Z,62.40
2018-01-24T21:34:51.045Z,62.60
2018-01-24T21:37:18.676Z,62.20
2018-01-24T21:39:46.236Z,61.90
2018-01-24T21:42:13.834Z,60.60
2018-01-24T21:44:41.421Z,60.20
2018-01-24T21:47:09.118Z,60.30
2018-01-24T21:49:36.759Z,60.60
2018-01-24T21:52:04.345Z,60.50
2018-01-24T21:54:31.967Z,59.80
2018-01-24T21:56:59.610Z,59.70
2018-01-24T21:59:27.979Z,59.40
2018-01-24T22:01:56.370Z,59.80
2018-01-24T22:04:24.019Z,59.70
2018-01-24T22:06:51.655Z,58.90
2018-01-24T22:09:19.232Z,59.10
2018-01-24T22:11:46.869Z,58.90
2018-01-24T22:14:14.490Z,59.10
2018-01-24T22:16:42.088Z,59.40
2018-01-24T22:19:09.704Z,59.20
2018-01-24T22:21:37.276Z,58.90
2018-01-24T22:24:04.886Z,58.50
2018-01-24T22:26:32.544Z,59.00
2018-01-24T22:29:00.183Z,60.00
2018-01-24T22:31:27.797Z,61.30
2018-01-24T22:33:55.396Z,62.00
2018-01-24T22:36:22.993Z,62.50
2018-01-24T22:38:50.617Z,61.60
2018-01-24T22:41:18.250Z,60.80
2018-01-24T22:43:45.912Z,60.40
2018-01-24T22:46:13.532Z,60.00
2018-01-24T22:48:41.130Z,59.50
2018-01-24T22:51:08.749Z,59.10
2018-01-24T22:53:36.359Z,59.50
2018-01-24T22:56:03.960Z,59.50
2018-01-24T22:58:31.567Z,59.50
2018-01-24T23:00:59.161Z,59.20
2018-01-24T23:03:26.830Z,59.20
2018-01-24T23:05:54.489Z,59.60
2018-01-24T23:08:22.065Z,60.80
2018-01-24T23:10:49.752Z,60.50
2018-01-24T23:13:17.324Z,60.80
2018-01-24T23:15:44.934Z,59.90
2018-01-24T23:18:12.524Z,59.50
2018-01-24T23:20:40.167Z,58.80
2018-01-24T23:23:07.838Z,58.00
2018-01-24T23:25:35.435Z,57.30
2018-01-24T23:28:03.043Z,56.60
2018-01-24T23:30:30.664Z,56.20
2018-01-24T23:32:58.324Z,55.60
2018-01-24T23:35:25.900Z,55.70
2018-01-24T23:37:53.546Z,54.90
2018-01-24T23:40:21.149Z,54.40
2018-01-24T23:42:48.787Z,55.20
2018-01-24T23:45:16.438Z,54.90
2018-01-24T23:47:44.084Z,54.50
2018-01-24T23:50:11.683Z,54.90
2018-01-24T23:52:39.314Z,54.30
2018-01-24T23:55:06.938Z,53.60
2018-01-24T23:57:34.540Z,53.30
